Terminal Aerodrome Forecast
Issued by NWS

Home | Current Version | Previous Version | Text Only | Print | Product List | Glossary On
Versions: 1 2 3 4 5 6 7 8 9 10 11 12 13 14 15 16 17 18 19 20 21 22 23 24 25 26 27 28 29 30 31 32
829
FTUS43 KABR 052322 AAB
TAFATY
TAF AMD
KATY 052322Z 0523/0624 24013KT P6SM OVC012
     FM060200 28020G29KT P6SM OVC015
     FM061900 28025G37KT P6SM OVC020
     FM062200 28023G34KT P6SM BKN020=

USA.gov is the U.S. government's official web portal to all federal, state and local government web resources and services.